sensor_id;sensor_type;location;lat;lon;timestamp;temperature;humidity
1766;DHT22;880;52.452;8.656;2022-12-29T00:00:06;10.90;99.90
1766;DHT22;880;52.452;8.656;2022-12-29T00:02:43;11.00;99.90
1766;DHT22;880;52.452;8.656;2022-12-29T00:05:10;10.90;99.90
1766;DHT22;880;52.452;8.656;2022-12-29T00:07:37;11.00;99.90
1766;DHT22;880;52.452;8.656;2022-12-29T00:10:05;11.00;99.90
1766;DHT22;880;52.452;8.656;2022-12-29T00:12:32;11.00;99.90
1766;DHT22;880;52.452;8.656;2022-12-29T00:15:19;10.80;99.90
1766;DHT22;880;52.452;8.656;2022-12-29T00:18:05;10.80;99.90
1766;DHT22;880;52.452;8.656;2022-12-29T00:20:37;10.70;99.90
1766;DHT22;880;52.452;8.656;2022-12-29T00:23:23;10.60;99.90
1766;DHT22;880;52.452;8.656;2022-12-29T00:26:16;10.60;99.90
1766;DHT22;880;52.452;8.656;2022-12-29T00:29:02;10.60;99.90
1766;DHT22;880;52.452;8.656;2022-12-29T00:31:48;10.60;99.90
1766;DHT22;880;52.452;8.656;2022-12-29T00:34:34;10.60;99.90
1766;DHT22;880;52.452;8.656;2022-12-29T00:37:20;10.60;99.90
1766;DHT22;880;52.452;8.656;2022-12-29T00:40:07;10.60;99.90
1766;DHT22;880;52.452;8.656;2022-12-29T00:42:53;10.60;99.90
1766;DHT22;880;52.452;8.656;2022-12-29T00:45:43;10.60;99.90
1766;DHT22;880;52.452;8.656;2022-12-29T00:48:10;10.70;99.90
1766;DHT22;880;52.452;8.656;2022-12-29T00:50:37;10.70;99.90
1766;DHT22;880;52.452;8.656;2022-12-29T00:53:04;10.80;99.90
1766;DHT22;880;52.452;8.656;2022-12-29T00:55:35;10.70;99.90
1766;DHT22;880;52.452;8.656;2022-12-29T00:58:03;10.80;99.90
1766;DHT22;880;52.452;8.656;2022-12-29T01:00:31;10.80;99.90
1766;DHT22;880;52.452;8.656;2022-12-29T01:02:58;10.90;99.90
1766;DHT22;880;52.452;8.656;2022-12-29T01:05:25;10.90;99.90
1766;DHT22;880;52.452;8.656;2022-12-29T01:07:52;10.90;99.90
1766;DHT22;880;52.452;8.656;2022-12-29T01:10:19;11.00;99.90
1766;DHT22;880;52.452;8.656;2022-12-29T01:12:46;11.00;99.90
1766;DHT22;880;52.452;8.656;2022-12-29T01:15:14;11.00;99.90
1766;DHT22;880;52.452;8.656;2022-12-29T01:17:42;11.00;99.90
1766;DHT22;880;52.452;8.656;2022-12-29T01:20:09;11.10;99.90
1766;DHT22;880;52.452;8.656;2022-12-29T01:22:37;11.10;99.90
1766;DHT22;880;52.452;8.656;2022-12-29T01:25:05;11.20;99.90
1766;DHT22;880;52.452;8.656;2022-12-29T01:27:33;11.20;99.90
1766;DHT22;880;52.452;8.656;2022-12-29T01:30:00;11.20;99.90
1766;DHT22;880;52.452;8.656;2022-12-29T01:32:27;11.20;99.90
1766;DHT22;880;52.452;8.656;2022-12-29T01:34:54;11.20;99.90
1766;DHT22;880;52.452;8.656;2022-12-29T01:37:21;11.20;99.90
1766;DHT22;880;52.452;8.656;2022-12-29T01:39:49;11.20;99.90
1766;DHT22;880;52.452;8.656;2022-12-29T01:42:18;11.20;99.90
1766;DHT22;880;52.452;8.656;2022-12-29T01:44:56;11.20;99.90
1766;DHT22;880;52.452;8.656;2022-12-29T01:50:26;11.30;99.90
1766;DHT22;880;52.452;8.656;2022-12-29T01:53:01;11.30;99.90
1766;DHT22;880;52.452;8.656;2022-12-29T01:55:36;11.30;99.90
1766;DHT22;880;52.452;8.656;2022-12-29T01:58:10;11.40;99.90
1766;DHT22;880;52.452;8.656;2022-12-29T02:00:39;11.40;99.90
1766;DHT22;880;52.452;8.656;2022-12-29T02:03:08;11.40;99.90
1766;DHT22;880;52.452;8.656;2022-12-29T02:05:47;11.40;99.90
1766;DHT22;880;52.452;8.656;2022-12-29T02:08:18;11.40;99.90
1766;DHT22;880;52.452;8.656;2022-12-29T02:10:47;11.40;99.90
1766;DHT22;880;52.452;8.656;2022-12-29T02:13:16;11.40;99.90
1766;DHT22;880;52.452;8.656;2022-12-29T02:22:17;11.10;99.90
1766;DHT22;880;52.452;8.656;2022-12-29T02:28:30;11.00;99.90
1766;DHT22;880;52.452;8.656;2022-12-29T02:37:02;11.00;99.90
1766;DHT22;880;52.452;8.656;2022-12-29T02:40:06;11.00;99.90
1766;DHT22;880;52.452;8.656;2022-12-29T02:48:23;10.90;99.90
1766;DHT22;880;52.452;8.656;2022-12-29T02:51:25;10.90;99.90
1766;DHT22;880;52.452;8.656;2022-12-29T02:53:57;10.80;99.90
1766;DHT22;880;52.452;8.656;2022-12-29T02:56:43;10.70;99.90
1766;DHT22;880;52.452;8.656;2022-12-29T02:59:11;10.70;99.90
1766;DHT22;880;52.452;8.656;2022-12-29T03:01:59;10.70;99.90
1766;DHT22;880;52.452;8.656;2022-12-29T03:11:12;10.70;99.90
1766;DHT22;880;52.452;8.656;2022-12-29T03:14:13;10.70;99.90
1766;DHT22;880;52.452;8.656;2022-12-29T03:17:17;10.80;99.90
1766;DHT22;880;52.452;8.656;2022-12-29T03:19:52;10.90;99.90
1766;DHT22;880;52.452;8.656;2022-12-29T03:22:30;11.00;99.90
1766;DHT22;880;52.452;8.656;2022-12-29T03:25:10;11.00;99.90
1766;DHT22;880;52.452;8.656;2022-12-29T03:27:53;11.10;99.90
1766;DHT22;880;52.452;8.656;2022-12-29T03:30:23;11.20;99.90
1766;DHT22;880;52.452;8.656;2022-12-29T03:33:03;11.20;99.90
1766;DHT22;880;52.452;8.656;2022-12-29T03:35:35;11.20;99.90
1766;DHT22;880;52.452;8.656;2022-12-29T03:40:57;11.30;99.90
1766;DHT22;880;52.452;8.656;2022-12-29T03:43:27;11.30;99.90
1766;DHT22;880;52.452;8.656;2022-12-29T03:45:55;11.40;99.90
1766;DHT22;880;52.452;8.656;2022-12-29T03:48:22;11.40;99.90
1766;DHT22;880;52.452;8.656;2022-12-29T03:50:50;11.40;99.90
1766;DHT22;880;52.452;8.656;2022-12-29T03:53:18;11.40;99.90
1766;DHT22;880;52.452;8.656;2022-12-29T03:55:46;11.50;99.90
1766;DHT22;880;52.452;8.656;2022-12-29T03:58:13;11.50;99.90
1766;DHT22;880;52.452;8.656;2022-12-29T04:01:03;11.50;99.90
1766;DHT22;880;52.452;8.656;2022-12-29T04:03:33;11.50;99.90
1766;DHT22;880;52.452;8.656;2022-12-29T04:06:00;11.50;99.90
1766;DHT22;880;52.452;8.656;2022-12-29T04:08:34;11.50;99.90
1766;DHT22;880;52.452;8.656;2022-12-29T04:11:01;11.50;99.90
1766;DHT22;880;52.452;8.656;2022-12-29T04:13:28;11.60;99.90
1766;DHT22;880;52.452;8.656;2022-12-29T04:15:56;11.60;99.90
1766;DHT22;880;52.452;8.656;2022-12-29T04:18:23;11.70;99.90
1766;DHT22;880;52.452;8.656;2022-12-29T04:20:51;11.70;99.90
1766;DHT22;880;52.452;8.656;2022-12-29T04:23:29;11.70;99.90
1766;DHT22;880;52.452;8.656;2022-12-29T04:25:58;11.70;99.90
1766;DHT22;880;52.452;8.656;2022-12-29T04:28:27;11.70;99.90
1766;DHT22;880;52.452;8.656;2022-12-29T04:31:22;11.70;99.90
1766;DHT22;880;52.452;8.656;2022-12-29T04:33:49;11.70;99.90
1766;DHT22;880;52.452;8.656;2022-12-29T04:36:16;11.80;99.90
1766;DHT22;880;52.452;8.656;2022-12-29T04:38:44;11.80;99.90
1766;DHT22;880;52.452;8.656;2022-12-29T04:41:12;11.80;99.90
1766;DHT22;880;52.452;8.656;2022-12-29T04:43:39;11.80;99.90
1766;DHT22;880;52.452;8.656;2022-12-29T04:46:22;11.90;99.90
1766;DHT22;880;52.452;8.656;2022-12-29T04:48:57;11.90;99.90
1766;DHT22;880;52.452;8.656;2022-12-29T04:51:28;11.90;99.90
1766;DHT22;880;52.452;8.656;2022-12-29T04:53:55;11.90;99.90
1766;DHT22;880;52.452;8.656;2022-12-29T04:56:23;12.00;99.90
1766;DHT22;880;52.452;8.656;2022-12-29T04:58:50;12.00;99.90
1766;DHT22;880;52.452;8.656;2022-12-29T05:01:19;11.90;99.90
1766;DHT22;880;52.452;8.656;2022-12-29T05:03:46;12.00;99.90
1766;DHT22;880;52.452;8.656;2022-12-29T05:06:14;12.00;99.90
1766;DHT22;880;52.452;8.656;2022-12-29T05:08:41;12.00;99.90
1766;DHT22;880;52.452;8.656;2022-12-29T05:11:09;12.00;99.90
1766;DHT22;880;52.452;8.656;2022-12-29T05:13:36;12.00;99.90
1766;DHT22;880;52.452;8.656;2022-12-29T05:16:04;11.90;99.90
1766;DHT22;880;52.452;8.656;2022-12-29T05:18:31;12.00;99.90
1766;DHT22;880;52.452;8.656;2022-12-29T05:20:59;12.00;99.90
1766;DHT22;880;52.452;8.656;2022-12-29T05:23:27;12.00;99.90
1766;DHT22;880;52.452;8.656;2022-12-29T05:26:04;12.00;99.90
1766;DHT22;880;52.452;8.656;2022-12-29T05:29:06;12.00;99.90
1766;DHT22;880;52.452;8.656;2022-12-29T05:31:34;12.00;99.90
1766;DHT22;880;52.452;8.656;2022-12-29T05:34:03;11.90;99.90
1766;DHT22;880;52.452;8.656;2022-12-29T05:36:31;11.90;99.90
1766;DHT22;880;52.452;8.656;2022-12-29T05:39:04;11.90;99.90
1766;DHT22;880;52.452;8.656;2022-12-29T05:41:33;11.80;99.90
1766;DHT22;880;52.452;8.656;2022-12-29T05:44:03;11.80;99.90
1766;DHT22;880;52.452;8.656;2022-12-29T05:46:53;11.70;99.90
1766;DHT22;880;52.452;8.656;2022-12-29T05:49:52;11.50;99.90
1766;DHT22;880;52.452;8.656;2022-12-29T05:52:28;11.40;99.90
1766;DHT22;880;52.452;8.656;2022-12-29T05:54:55;11.30;99.90
1766;DHT22;880;52.452;8.656;2022-12-29T05:57:24;11.20;99.90
1766;DHT22;880;52.452;8.656;2022-12-29T06:00:21;11.10;99.90
1766;DHT22;880;52.452;8.656;2022-12-29T06:02:48;11.00;99.90
1766;DHT22;880;52.452;8.656;2022-12-29T06:05:16;10.90;99.90
1766;DHT22;880;52.452;8.656;2022-12-29T06:07:44;10.90;99.90
1766;DHT22;880;52.452;8.656;2022-12-29T06:10:14;10.80;99.90
1766;DHT22;880;52.452;8.656;2022-12-29T06:12:45;10.80;99.90
1766;DHT22;880;52.452;8.656;2022-12-29T06:15:14;10.70;99.90
1766;DHT22;880;52.452;8.656;2022-12-29T06:17:42;10.70;99.90
1766;DHT22;880;52.452;8.656;2022-12-29T06:20:09;10.60;99.90
1766;DHT22;880;52.452;8.656;2022-12-29T06:22:37;10.50;99.90
1766;DHT22;880;52.452;8.656;2022-12-29T06:25:04;10.50;99.90
1766;DHT22;880;52.452;8.656;2022-12-29T06:27:33;10.40;99.90
1766;DHT22;880;52.452;8.656;2022-12-29T06:30:01;10.40;99.90
1766;DHT22;880;52.452;8.656;2022-12-29T06:32:28;10.40;99.90
1766;DHT22;880;52.452;8.656;2022-12-29T06:35:01;10.40;99.90
1766;DHT22;880;52.452;8.656;2022-12-29T06:37:29;10.30;99.90
1766;DHT22;880;52.452;8.656;2022-12-29T06:39:57;10.30;99.90
1766;DHT22;880;52.452;8.656;2022-12-29T06:42:29;10.30;99.90
1766;DHT22;880;52.452;8.656;2022-12-29T06:45:21;10.30;99.90
1766;DHT22;880;52.452;8.656;2022-12-29T06:47:48;10.20;99.90
1766;DHT22;880;52.452;8.656;2022-12-29T06:50:15;10.20;99.90
1766;DHT22;880;52.452;8.656;2022-12-29T06:52:42;10.20;99.90
1766;DHT22;880;52.452;8.656;2022-12-29T06:55:09;10.20;99.90
1766;DHT22;880;52.452;8.656;2022-12-29T06:57:36;10.10;99.90
1766;DHT22;880;52.452;8.656;2022-12-29T07:00:04;10.10;99.90
1766;DHT22;880;52.452;8.656;2022-12-29T07:02:31;10.10;99.90
1766;DHT22;880;52.452;8.656;2022-12-29T07:04:58;10.10;99.90
1766;DHT22;880;52.452;8.656;2022-12-29T07:07:26;10.10;99.90
1766;DHT22;880;52.452;8.656;2022-12-29T07:09:53;10.10;99.90
1766;DHT22;880;52.452;8.656;2022-12-29T07:12:20;10.10;99.90
1766;DHT22;880;52.452;8.656;2022-12-29T07:14:47;10.10;99.90
1766;DHT22;880;52.452;8.656;2022-12-29T07:17:15;10.10;99.90
1766;DHT22;880;52.452;8.656;2022-12-29T07:19:42;10.20;99.90
1766;DHT22;880;52.452;8.656;2022-12-29T07:22:10;10.20;99.90
1766;DHT22;880;52.452;8.656;2022-12-29T07:24:36;10.20;99.90
1766;DHT22;880;52.452;8.656;2022-12-29T07:27:04;10.30;99.90
1766;DHT22;880;52.452;8.656;2022-12-29T07:29:31;10.30;99.90
1766;DHT22;880;52.452;8.656;2022-12-29T07:31:58;10.30;99.90
1766;DHT22;880;52.452;8.656;2022-12-29T07:34:25;10.30;99.90
1766;DHT22;880;52.452;8.656;2022-12-29T07:36:52;10.40;99.90
1766;DHT22;880;52.452;8.656;2022-12-29T07:39:18;10.40;99.90
1766;DHT22;880;52.452;8.656;2022-12-29T07:41:46;10.40;99.90
1766;DHT22;880;52.452;8.656;2022-12-29T07:44:17;10.40;99.90
1766;DHT22;880;52.452;8.656;2022-12-29T07:46:50;10.40;99.90
1766;DHT22;880;52.452;8.656;2022-12-29T07:49:23;10.40;99.90
1766;DHT22;880;52.452;8.656;2022-12-29T07:51:50;10.40;99.90
1766;DHT22;880;52.452;8.656;2022-12-29T07:54:17;10.40;99.90
1766;DHT22;880;52.452;8.656;2022-12-29T07:56:49;10.40;99.90
1766;DHT22;880;52.452;8.656;2022-12-29T07:59:16;10.40;99.90
1766;DHT22;880;52.452;8.656;2022-12-29T08:01:43;10.40;99.90
1766;DHT22;880;52.452;8.656;2022-12-29T08:04:11;10.40;99.90
1766;DHT22;880;52.452;8.656;2022-12-29T08:06:39;10.40;99.90
1766;DHT22;880;52.452;8.656;2022-12-29T08:09:06;10.40;99.90
1766;DHT22;880;52.452;8.656;2022-12-29T08:11:43;10.30;99.90
1766;DHT22;880;52.452;8.656;2022-12-29T08:14:11;10.30;99.90
1766;DHT22;880;52.452;8.656;2022-12-29T08:16:38;10.30;99.90
1766;DHT22;880;52.452;8.656;2022-12-29T08:19:05;10.20;99.90
1766;DHT22;880;52.452;8.656;2022-12-29T08:21:32;10.20;99.90
1766;DHT22;880;52.452;8.656;2022-12-29T08:23:59;10.20;99.90
1766;DHT22;880;52.452;8.656;2022-12-29T08:26:26;10.20;99.90
1766;DHT22;880;52.452;8.656;2022-12-29T08:28:53;10.20;99.90
1766;DHT22;880;52.452;8.656;2022-12-29T08:31:22;10.20;99.90
1766;DHT22;880;52.452;8.656;2022-12-29T08:33:51;10.20;99.90
1766;DHT22;880;52.452;8.656;2022-12-29T08:36:18;10.20;99.90
1766;DHT22;880;52.452;8.656;2022-12-29T08:38:45;10.20;99.90
1766;DHT22;880;52.452;8.656;2022-12-29T08:41:12;10.20;99.90
1766;DHT22;880;52.452;8.656;2022-12-29T08:43:39;10.20;99.90
1766;DHT22;880;52.452;8.656;2022-12-29T08:46:06;10.20;99.90
1766;DHT22;880;52.452;8.656;2022-12-29T08:48:33;10.30;99.90
1766;DHT22;880;52.452;8.656;2022-12-29T08:51:00;10.30;99.90
1766;DHT22;880;52.452;8.656;2022-12-29T08:53:27;10.40;99.90
1766;DHT22;880;52.452;8.656;2022-12-29T08:55:57;10.40;99.90
1766;DHT22;880;52.452;8.656;2022-12-29T08:58:35;10.50;99.90
1766;DHT22;880;52.452;8.656;2022-12-29T09:01:03;10.50;99.90
1766;DHT22;880;52.452;8.656;2022-12-29T09:03:30;10.50;99.90
1766;DHT22;880;52.452;8.656;2022-12-29T09:06:17;10.50;99.90
1766;DHT22;880;52.452;8.656;2022-12-29T09:08:44;10.60;99.90
1766;DHT22;880;52.452;8.656;2022-12-29T09:11:22;10.60;99.90
1766;DHT22;880;52.452;8.656;2022-12-29T09:13:51;10.70;99.90
1766;DHT22;880;52.452;8.656;2022-12-29T09:16:20;10.80;99.90
1766;DHT22;880;52.452;8.656;2022-12-29T09:18:50;10.80;99.90
1766;DHT22;880;52.452;8.656;2022-12-29T09:21:17;11.00;99.90
1766;DHT22;880;52.452;8.656;2022-12-29T09:23:44;11.00;99.90
1766;DHT22;880;52.452;8.656;2022-12-29T09:26:11;11.00;99.90
1766;DHT22;880;52.452;8.656;2022-12-29T09:28:38;11.00;99.90
1766;DHT22;880;52.452;8.656;2022-12-29T09:31:06;11.10;99.90
1766;DHT22;880;52.452;8.656;2022-12-29T09:33:33;11.20;99.90
1766;DHT22;880;52.452;8.656;2022-12-29T09:36:00;11.30;99.90
1766;DHT22;880;52.452;8.656;2022-12-29T09:38:28;11.40;99.90
1766;DHT22;880;52.452;8.656;2022-12-29T09:41:04;11.60;99.90
1766;DHT22;880;52.452;8.656;2022-12-29T09:44:03;11.70;99.90
1766;DHT22;880;52.452;8.656;2022-12-29T09:46:41;11.80;99.90
1766;DHT22;880;52.452;8.656;2022-12-29T09:51:50;12.00;99.90
1766;DHT22;880;52.452;8.656;2022-12-29T09:57:37;12.10;99.90
1766;DHT22;880;52.452;8.656;2022-12-29T10:00:13;12.10;99.90
1766;DHT22;880;52.452;8.656;2022-12-29T10:02:58;12.00;99.90
1766;DHT22;880;52.452;8.656;2022-12-29T10:08:42;12.20;99.90
1766;DHT22;880;52.452;8.656;2022-12-29T10:17:08;12.50;99.90
1766;DHT22;880;52.452;8.656;2022-12-29T10:20:20;12.60;99.90
1766;DHT22;880;52.452;8.656;2022-12-29T10:23:35;12.60;99.90
1766;DHT22;880;52.452;8.656;2022-12-29T10:26:10;12.60;99.90
1766;DHT22;880;52.452;8.656;2022-12-29T10:28:44;12.60;99.90
1766;DHT22;880;52.452;8.656;2022-12-29T10:31:20;12.60;99.90
1766;DHT22;880;52.452;8.656;2022-12-29T10:33:53;12.70;99.90
1766;DHT22;880;52.452;8.656;2022-12-29T10:39:10;12.80;99.90
1766;DHT22;880;52.452;8.656;2022-12-29T10:41:57;12.80;99.90
1766;DHT22;880;52.452;8.656;2022-12-29T10:44:30;12.80;99.90
1766;DHT22;880;52.452;8.656;2022-12-29T10:47:02;12.90;99.90
1766;DHT22;880;52.452;8.656;2022-12-29T10:49:39;12.90;99.90
1766;DHT22;880;52.452;8.656;2022-12-29T10:52:10;13.00;99.90
1766;DHT22;880;52.452;8.656;2022-12-29T10:55:14;13.00;99.90
1766;DHT22;880;52.452;8.656;2022-12-29T10:57:45;13.00;99.90
1766;DHT22;880;52.452;8.656;2022-12-29T11:00:18;13.10;99.90
1766;DHT22;880;52.452;8.656;2022-12-29T11:06:01;13.10;99.90
1766;DHT22;880;52.452;8.656;2022-12-29T11:08:38;12.90;99.90
1766;DHT22;880;52.452;8.656;2022-12-29T11:11:09;12.70;99.90
1766;DHT22;880;52.452;8.656;2022-12-29T11:13:54;12.70;99.90
1766;DHT22;880;52.452;8.656;2022-12-29T11:16:31;12.70;99.90
1766;DHT22;880;52.452;8.656;2022-12-29T11:19:01;12.70;99.90
1766;DHT22;880;52.452;8.656;2022-12-29T11:21:33;12.60;99.90
1766;DHT22;880;52.452;8.656;2022-12-29T11:24:20;12.50;99.90
1766;DHT22;880;52.452;8.656;2022-12-29T11:27:10;12.40;99.90
1766;DHT22;880;52.452;8.656;2022-12-29T11:29:52;12.30;99.90
1766;DHT22;880;52.452;8.656;2022-12-29T11:32:22;12.30;99.90
1766;DHT22;880;52.452;8.656;2022-12-29T11:34:56;12.30;99.90
1766;DHT22;880;52.452;8.656;2022-12-29T11:37:36;12.20;99.90
1766;DHT22;880;52.452;8.656;2022-12-29T11:40:15;12.10;99.90
1766;DHT22;880;52.452;8.656;2022-12-29T11:42:51;12.10;99.90
1766;DHT22;880;52.452;8.656;2022-12-29T11:45:27;12.00;99.90
1766;DHT22;880;52.452;8.656;2022-12-29T11:48:05;12.00;99.90
1766;DHT22;880;52.452;8.656;2022-12-29T11:50:37;11.90;99.90
1766;DHT22;880;52.452;8.656;2022-12-29T11:53:16;11.90;99.90
1766;DHT22;880;52.452;8.656;2022-12-29T11:55:58;11.90;99.90
1766;DHT22;880;52.452;8.656;2022-12-29T11:58:31;11.90;99.90
1766;DHT22;880;52.452;8.656;2022-12-29T12:01:26;11.90;99.90
1766;DHT22;880;52.452;8.656;2022-12-29T12:04:09;11.90;99.90
1766;DHT22;880;52.452;8.656;2022-12-29T12:06:44;11.90;99.90
1766;DHT22;880;52.452;8.656;2022-12-29T12:09:22;11.90;99.90
1766;DHT22;880;52.452;8.656;2022-12-29T12:11:53;11.90;99.90
1766;DHT22;880;52.452;8.656;2022-12-29T12:14:30;11.90;99.90
1766;DHT22;880;52.452;8.656;2022-12-29T12:17:18;11.90;99.90
1766;DHT22;880;52.452;8.656;2022-12-29T12:19:57;11.90;99.90
1766;DHT22;880;52.452;8.656;2022-12-29T12:22:38;11.90;99.90
1766;DHT22;880;52.452;8.656;2022-12-29T12:25:23;11.90;99.90
1766;DHT22;880;52.452;8.656;2022-12-29T12:30:44;11.80;99.90
1766;DHT22;880;52.452;8.656;2022-12-29T12:33:19;11.80;99.90
1766;DHT22;880;52.452;8.656;2022-12-29T12:39:06;11.80;99.90
1766;DHT22;880;52.452;8.656;2022-12-29T12:42:04;11.90;99.90
1766;DHT22;880;52.452;8.656;2022-12-29T12:50:18;11.80;99.90
1766;DHT22;880;52.452;8.656;2022-12-29T12:58:58;11.80;99.90
1766;DHT22;880;52.452;8.656;2022-12-29T13:19:26;11.10;99.90
1766;DHT22;880;52.452;8.656;2022-12-29T13:30:48;11.00;99.90
1766;DHT22;880;52.452;8.656;2022-12-29T13:39:08;11.10;99.90
1766;DHT22;880;52.452;8.656;2022-12-29T13:41:50;11.10;99.90
1766;DHT22;880;52.452;8.656;2022-12-29T13:47:27;11.10;99.90
1766;DHT22;880;52.452;8.656;2022-12-29T13:49:58;11.10;99.90
1766;DHT22;880;52.452;8.656;2022-12-29T13:52:37;11.20;99.90
1766;DHT22;880;52.452;8.656;2022-12-29T13:55:31;11.20;99.90
1766;DHT22;880;52.452;8.656;2022-12-29T14:01:15;11.20;99.90
1766;DHT22;880;52.452;8.656;2022-12-29T14:03:53;11.30;99.90
1766;DHT22;880;52.452;8.656;2022-12-29T14:06:34;11.30;99.90
1766;DHT22;880;52.452;8.656;2022-12-29T14:09:41;11.30;99.90
1766;DHT22;880;52.452;8.656;2022-12-29T14:12:40;11.30;99.90
1766;DHT22;880;52.452;8.656;2022-12-29T14:17:42;11.20;99.90
1766;DHT22;880;52.452;8.656;2022-12-29T14:20:36;11.30;99.90
1766;DHT22;880;52.452;8.656;2022-12-29T14:28:32;11.20;99.90
1766;DHT22;880;52.452;8.656;2022-12-29T14:31:33;11.20;99.90
1766;DHT22;880;52.452;8.656;2022-12-29T14:36:40;11.20;99.90
1766;DHT22;880;52.452;8.656;2022-12-29T14:44:51;11.10;99.90
1766;DHT22;880;52.452;8.656;2022-12-29T14:50:22;11.10;99.90
1766;DHT22;880;52.452;8.656;2022-12-29T14:52:59;11.10;99.90
1766;DHT22;880;52.452;8.656;2022-12-29T14:55:44;11.10;99.90
1766;DHT22;880;52.452;8.656;2022-12-29T14:58:29;11.10;99.90
1766;DHT22;880;52.452;8.656;2022-12-29T15:00:59;11.10;99.90
1766;DHT22;880;52.452;8.656;2022-12-29T15:06:30;11.00;99.90
1766;DHT22;880;52.452;8.656;2022-12-29T15:09:51;11.00;99.90
1766;DHT22;880;52.452;8.656;2022-12-29T15:12:15;11.00;99.90
1766;DHT22;880;52.452;8.656;2022-12-29T15:14:57;11.00;99.90
1766;DHT22;880;52.452;8.656;2022-12-29T15:17:34;11.00;99.90
1766;DHT22;880;52.452;8.656;2022-12-29T15:20:27;11.00;99.90
1766;DHT22;880;52.452;8.656;2022-12-29T15:23:09;10.90;99.90
1766;DHT22;880;52.452;8.656;2022-12-29T15:26:09;11.00;99.90
1766;DHT22;880;52.452;8.656;2022-12-29T15:28:45;11.00;99.90
1766;DHT22;880;52.452;8.656;2022-12-29T15:31:23;10.90;99.90
1766;DHT22;880;52.452;8.656;2022-12-29T15:34:10;10.90;99.90
1766;DHT22;880;52.452;8.656;2022-12-29T15:36:39;10.90;99.90
1766;DHT22;880;52.452;8.656;2022-12-29T15:39:29;10.90;99.90
1766;DHT22;880;52.452;8.656;2022-12-29T15:42:03;10.90;99.90
1766;DHT22;880;52.452;8.656;2022-12-29T15:44:39;10.80;99.90
1766;DHT22;880;52.452;8.656;2022-12-29T15:47:20;10.70;99.90
1766;DHT22;880;52.452;8.656;2022-12-29T15:49:51;10.70;99.90
1766;DHT22;880;52.452;8.656;2022-12-29T15:52:21;10.70;99.90
1766;DHT22;880;52.452;8.656;2022-12-29T15:54:52;10.70;99.90
1766;DHT22;880;52.452;8.656;2022-12-29T15:57:25;10.70;99.90
1766;DHT22;880;52.452;8.656;2022-12-29T15:59:54;10.70;99.90
1766;DHT22;880;52.452;8.656;2022-12-29T16:02:22;10.70;99.90
1766;DHT22;880;52.452;8.656;2022-12-29T16:04:50;10.70;99.90
1766;DHT22;880;52.452;8.656;2022-12-29T16:07:38;10.80;99.90
1766;DHT22;880;52.452;8.656;2022-12-29T16:10:32;10.70;99.90
1766;DHT22;880;52.452;8.656;2022-12-29T16:13:21;10.70;99.90
1766;DHT22;880;52.452;8.656;2022-12-29T16:15:54;10.60;99.90
1766;DHT22;880;52.452;8.656;2022-12-29T16:19:36;10.70;99.90
1766;DHT22;880;52.452;8.656;2022-12-29T16:23:20;10.60;99.90
1766;DHT22;880;52.452;8.656;2022-12-29T16:27:18;10.90;99.90
1766;DHT22;880;52.452;8.656;2022-12-29T16:31:06;11.40;99.90
1766;DHT22;880;52.452;8.656;2022-12-29T16:38:22;11.20;99.90
1766;DHT22;880;52.452;8.656;2022-12-29T16:41:57;10.90;99.90
1766;DHT22;880;52.452;8.656;2022-12-29T16:53:40;10.30;99.90
1766;DHT22;880;52.452;8.656;2022-12-29T16:57:04;10.10;99.90
1766;DHT22;880;52.452;8.656;2022-12-29T17:00:55;10.00;99.90
1766;DHT22;880;52.452;8.656;2022-12-29T17:04:25;9.80;99.90
1766;DHT22;880;52.452;8.656;2022-12-29T17:08:00;9.60;99.90
1766;DHT22;880;52.452;8.656;2022-12-29T17:11:31;9.40;99.90
1766;DHT22;880;52.452;8.656;2022-12-29T17:15:15;9.30;99.90
1766;DHT22;880;52.452;8.656;2022-12-29T17:18:48;9.20;99.90
1766;DHT22;880;52.452;8.656;2022-12-29T17:22:17;9.20;99.90
1766;DHT22;880;52.452;8.656;2022-12-29T17:25:45;9.20;99.90
1766;DHT22;880;52.452;8.656;2022-12-29T17:29:18;9.20;99.90
1766;DHT22;880;52.452;8.656;2022-12-29T17:33:08;9.20;99.90
1766;DHT22;880;52.452;8.656;2022-12-29T17:36:44;9.20;99.90
1766;DHT22;880;52.452;8.656;2022-12-29T17:40:15;9.20;99.90
1766;DHT22;880;52.452;8.656;2022-12-29T17:43:46;9.20;99.90
1766;DHT22;880;52.452;8.656;2022-12-29T17:47:20;9.20;99.90
1766;DHT22;880;52.452;8.656;2022-12-29T17:50:51;9.20;99.90
1766;DHT22;880;52.452;8.656;2022-12-29T17:56:45;9.20;99.90
1766;DHT22;880;52.452;8.656;2022-12-29T17:59:13;9.10;99.90
1766;DHT22;880;52.452;8.656;2022-12-29T18:01:41;9.20;99.90
1766;DHT22;880;52.452;8.656;2022-12-29T18:04:13;9.20;99.90
1766;DHT22;880;52.452;8.656;2022-12-29T18:06:42;9.20;99.90
1766;DHT22;880;52.452;8.656;2022-12-29T18:09:09;9.20;99.90
1766;DHT22;880;52.452;8.656;2022-12-29T18:11:43;9.20;99.90
1766;DHT22;880;52.452;8.656;2022-12-29T18:14:15;9.20;99.90
1766;DHT22;880;52.452;8.656;2022-12-29T18:16:43;9.20;99.90
1766;DHT22;880;52.452;8.656;2022-12-29T18:19:10;9.20;99.90
1766;DHT22;880;52.452;8.656;2022-12-29T18:21:37;9.20;99.90
1766;DHT22;880;52.452;8.656;2022-12-29T18:24:05;9.20;99.90
1766;DHT22;880;52.452;8.656;2022-12-29T18:26:32;9.20;99.90
1766;DHT22;880;52.452;8.656;2022-12-29T18:29:01;9.20;99.90
1766;DHT22;880;52.452;8.656;2022-12-29T18:31:30;9.20;99.90
1766;DHT22;880;52.452;8.656;2022-12-29T18:34:00;9.10;99.90
1766;DHT22;880;52.452;8.656;2022-12-29T18:36:28;9.20;99.90
1766;DHT22;880;52.452;8.656;2022-12-29T18:38:55;9.20;99.90
1766;DHT22;880;52.452;8.656;2022-12-29T18:41:27;9.20;99.90
1766;DHT22;880;52.452;8.656;2022-12-29T18:43:55;9.20;99.90
1766;DHT22;880;52.452;8.656;2022-12-29T18:46:23;9.20;99.90
1766;DHT22;880;52.452;8.656;2022-12-29T18:48:52;9.20;99.90
1766;DHT22;880;52.452;8.656;2022-12-29T18:51:23;9.20;99.90
1766;DHT22;880;52.452;8.656;2022-12-29T18:53:52;9.20;99.90
1766;DHT22;880;52.452;8.656;2022-12-29T18:56:20;9.20;99.90
1766;DHT22;880;52.452;8.656;2022-12-29T18:58:49;9.20;99.90
1766;DHT22;880;52.452;8.656;2022-12-29T19:01:22;9.20;99.90
1766;DHT22;880;52.452;8.656;2022-12-29T19:03:53;9.20;99.90
1766;DHT22;880;52.452;8.656;2022-12-29T19:06:21;9.30;99.90
1766;DHT22;880;52.452;8.656;2022-12-29T19:08:48;9.30;99.90
1766;DHT22;880;52.452;8.656;2022-12-29T19:11:15;9.30;99.90
1766;DHT22;880;52.452;8.656;2022-12-29T19:13:43;9.30;99.90
1766;DHT22;880;52.452;8.656;2022-12-29T19:16:18;9.30;99.90
1766;DHT22;880;52.452;8.656;2022-12-29T19:18:47;9.30;99.90
1766;DHT22;880;52.452;8.656;2022-12-29T19:21:33;9.30;99.90
1766;DHT22;880;52.452;8.656;2022-12-29T19:24:02;9.30;99.90
1766;DHT22;880;52.452;8.656;2022-12-29T19:26:32;9.30;99.90
1766;DHT22;880;52.452;8.656;2022-12-29T19:29:03;9.30;99.90
1766;DHT22;880;52.452;8.656;2022-12-29T19:31:32;9.30;99.90
1766;DHT22;880;52.452;8.656;2022-12-29T19:34:00;9.30;99.90
1766;DHT22;880;52.452;8.656;2022-12-29T19:36:28;9.30;99.90
1766;DHT22;880;52.452;8.656;2022-12-29T19:38:55;9.30;99.90
1766;DHT22;880;52.452;8.656;2022-12-29T19:41:23;9.30;99.90
1766;DHT22;880;52.452;8.656;2022-12-29T19:43:50;9.30;99.90
1766;DHT22;880;52.452;8.656;2022-12-29T19:46:18;9.30;99.90
1766;DHT22;880;52.452;8.656;2022-12-29T19:48:46;9.30;99.90
1766;DHT22;880;52.452;8.656;2022-12-29T19:51:14;9.30;99.90
1766;DHT22;880;52.452;8.656;2022-12-29T19:53:46;9.30;99.90